sensor_id;sensor_type;location;lat;lon;timestamp;P1;durP1;ratioP1;P2;durP2;ratioP2
52158;SDS011;38145;53.182;6.284;2022-08-07T00:02:02;5.97;;;5.28;;
52158;SDS011;38145;53.182;6.284;2022-08-07T00:04:28;7.50;;;4.88;;
52158;SDS011;38145;53.182;6.284;2022-08-07T00:06:56;5.93;;;5.18;;
52158;SDS011;38145;53.182;6.284;2022-08-07T00:09:21;5.18;;;4.63;;
52158;SDS011;38145;53.182;6.284;2022-08-07T00:11:48;4.78;;;4.25;;
52158;SDS011;38145;53.182;6.284;2022-08-07T00:14:15;4.50;;;4.07;;
52158;SDS011;38145;53.182;6.284;2022-08-07T00:16:41;4.63;;;4.22;;
52158;SDS011;38145;53.182;6.284;2022-08-07T00:19:07;6.50;;;4.15;;
52158;SDS011;38145;53.182;6.284;2022-08-07T00:21:33;5.50;;;4.28;;
52158;SDS011;38145;53.182;6.284;2022-08-07T00:24:00;4.97;;;4.03;;
52158;SDS011;38145;53.182;6.284;2022-08-07T00:26:26;5.68;;;4.93;;
52158;SDS011;38145;53.182;6.284;2022-08-07T00:28:52;5.18;;;4.53;;
52158;SDS011;38145;53.182;6.284;2022-08-07T00:31:18;5.47;;;4.25;;
52158;SDS011;38145;53.182;6.284;2022-08-07T00:33:44;4.93;;;4.20;;
52158;SDS011;38145;53.182;6.284;2022-08-07T00:36:10;4.43;;;3.70;;
52158;SDS011;38145;53.182;6.284;2022-08-07T00:38:36;4.93;;;4.43;;
52158;SDS011;38145;53.182;6.284;2022-08-07T00:41:03;5.18;;;4.65;;
52158;SDS011;38145;53.182;6.284;2022-08-07T00:45:56;6.78;;;5.60;;
52158;SDS011;38145;53.182;6.284;2022-08-07T00:48:24;6.28;;;5.07;;
52158;SDS011;38145;53.182;6.284;2022-08-07T00:50:50;5.35;;;4.55;;
52158;SDS011;38145;53.182;6.284;2022-08-07T00:53:17;5.03;;;3.88;;
52158;SDS011;38145;53.182;6.284;2022-08-07T00:55:43;5.10;;;4.20;;
52158;SDS011;38145;53.182;6.284;2022-08-07T00:58:10;8.23;;;5.78;;
52158;SDS011;38145;53.182;6.284;2022-08-07T01:00:35;5.85;;;4.93;;
52158;SDS011;38145;53.182;6.284;2022-08-07T01:03:01;5.97;;;4.63;;
52158;SDS011;38145;53.182;6.284;2022-08-07T01:05:27;5.20;;;4.35;;
52158;SDS011;38145;53.182;6.284;2022-08-07T01:07:54;10.63;;;6.13;;
52158;SDS011;38145;53.182;6.284;2022-08-07T01:10:20;7.38;;;5.85;;
52158;SDS011;38145;53.182;6.284;2022-08-07T01:12:46;6.72;;;6.03;;
52158;SDS011;38145;53.182;6.284;2022-08-07T01:15:14;8.25;;;5.93;;
52158;SDS011;38145;53.182;6.284;2022-08-07T01:17:40;6.80;;;5.82;;
52158;SDS011;38145;53.182;6.284;2022-08-07T01:20:07;6.40;;;5.65;;
52158;SDS011;38145;53.182;6.284;2022-08-07T01:22:36;6.00;;;5.40;;
52158;SDS011;38145;53.182;6.284;2022-08-07T01:25:02;7.25;;;5.70;;
52158;SDS011;38145;53.182;6.284;2022-08-07T01:27:28;8.48;;;5.93;;
52158;SDS011;38145;53.182;6.284;2022-08-07T01:29:54;7.28;;;6.05;;
52158;SDS011;38145;53.182;6.284;2022-08-07T01:32:20;7.28;;;5.68;;
52158;SDS011;38145;53.182;6.284;2022-08-07T01:34:46;9.07;;;6.70;;
52158;SDS011;38145;53.182;6.284;2022-08-07T01:37:13;6.18;;;5.50;;
52158;SDS011;38145;53.182;6.284;2022-08-07T01:39:42;6.45;;;4.47;;
52158;SDS011;38145;53.182;6.284;2022-08-07T01:42:11;6.38;;;4.38;;
52158;SDS011;38145;53.182;6.284;2022-08-07T01:44:38;4.95;;;4.25;;
52158;SDS011;38145;53.182;6.284;2022-08-07T01:47:05;5.07;;;4.47;;
52158;SDS011;38145;53.182;6.284;2022-08-07T01:49:31;6.13;;;5.15;;
52158;SDS011;38145;53.182;6.284;2022-08-07T01:51:57;7.50;;;6.35;;
52158;SDS011;38145;53.182;6.284;2022-08-07T01:54:26;9.13;;;6.57;;
52158;SDS011;38145;53.182;6.284;2022-08-07T01:57:01;7.78;;;6.28;;
52158;SDS011;38145;53.182;6.284;2022-08-07T01:59:33;6.68;;;5.50;;
52158;SDS011;38145;53.182;6.284;2022-08-07T02:02:12;4.55;;;3.58;;
52158;SDS011;38145;53.182;6.284;2022-08-07T02:04:46;5.60;;;3.28;;
52158;SDS011;38145;53.182;6.284;2022-08-07T02:07:17;5.60;;;2.50;;
52158;SDS011;38145;53.182;6.284;2022-08-07T02:09:46;4.95;;;4.03;;
52158;SDS011;38145;53.182;6.284;2022-08-07T02:12:15;5.07;;;3.40;;
52158;SDS011;38145;53.182;6.284;2022-08-07T02:14:44;4.32;;;3.67;;
52158;SDS011;38145;53.182;6.284;2022-08-07T02:17:13;4.13;;;3.72;;
52158;SDS011;38145;53.182;6.284;2022-08-07T02:19:41;4.57;;;3.72;;
52158;SDS011;38145;53.182;6.284;2022-08-07T02:22:10;4.70;;;3.72;;
52158;SDS011;38145;53.182;6.284;2022-08-07T02:24:39;4.70;;;4.20;;
52158;SDS011;38145;53.182;6.284;2022-08-07T02:27:07;5.50;;;4.40;;
52158;SDS011;38145;53.182;6.284;2022-08-07T02:29:35;6.90;;;5.53;;
52158;SDS011;38145;53.182;6.284;2022-08-07T02:32:01;9.02;;;6.60;;
52158;SDS011;38145;53.182;6.284;2022-08-07T02:34:28;11.33;;;7.23;;
52158;SDS011;38145;53.182;6.284;2022-08-07T02:36:56;9.55;;;7.13;;
52158;SDS011;38145;53.182;6.284;2022-08-07T02:39:23;9.55;;;7.03;;
52158;SDS011;38145;53.182;6.284;2022-08-07T02:41:50;9.60;;;7.95;;
52158;SDS011;38145;53.182;6.284;2022-08-07T02:44:17;8.10;;;7.30;;
52158;SDS011;38145;53.182;6.284;2022-08-07T02:46:45;10.30;;;7.47;;
52158;SDS011;38145;53.182;6.284;2022-08-07T02:49:12;9.13;;;6.97;;
52158;SDS011;38145;53.182;6.284;2022-08-07T02:51:38;7.35;;;5.63;;
52158;SDS011;38145;53.182;6.284;2022-08-07T02:54:07;6.45;;;5.80;;
52158;SDS011;38145;53.182;6.284;2022-08-07T02:56:35;9.45;;;6.75;;
52158;SDS011;38145;53.182;6.284;2022-08-07T02:59:05;9.13;;;7.18;;
52158;SDS011;38145;53.182;6.284;2022-08-07T03:01:36;7.65;;;5.68;;
52158;SDS011;38145;53.182;6.284;2022-08-07T03:06:31;9.43;;;7.68;;
52158;SDS011;38145;53.182;6.284;2022-08-07T03:08:58;9.52;;;7.53;;
52158;SDS011;38145;53.182;6.284;2022-08-07T03:11:26;9.38;;;8.10;;
52158;SDS011;38145;53.182;6.284;2022-08-07T03:13:53;10.38;;;8.75;;
52158;SDS011;38145;53.182;6.284;2022-08-07T03:16:20;9.60;;;8.60;;
52158;SDS011;38145;53.182;6.284;2022-08-07T03:18:46;11.00;;;9.02;;
52158;SDS011;38145;53.182;6.284;2022-08-07T03:21:12;9.70;;;8.20;;
52158;SDS011;38145;53.182;6.284;2022-08-07T03:23:39;10.48;;;8.73;;
52158;SDS011;38145;53.182;6.284;2022-08-07T03:26:06;10.38;;;8.15;;
52158;SDS011;38145;53.182;6.284;2022-08-07T03:28:34;13.50;;;8.65;;
52158;SDS011;38145;53.182;6.284;2022-08-07T03:31:02;10.27;;;8.80;;
52158;SDS011;38145;53.182;6.284;2022-08-07T03:33:43;10.60;;;7.88;;
52158;SDS011;38145;53.182;6.284;2022-08-07T03:36:14;10.20;;;8.63;;
52158;SDS011;38145;53.182;6.284;2022-08-07T03:38:43;10.43;;;7.68;;
52158;SDS011;38145;53.182;6.284;2022-08-07T03:41:12;8.68;;;7.50;;
52158;SDS011;38145;53.182;6.284;2022-08-07T03:43:39;6.80;;;6.10;;
52158;SDS011;38145;53.182;6.284;2022-08-07T03:46:06;6.75;;;6.00;;
52158;SDS011;38145;53.182;6.284;2022-08-07T03:48:33;8.32;;;6.93;;
52158;SDS011;38145;53.182;6.284;2022-08-07T03:51:00;6.38;;;5.38;;
52158;SDS011;38145;53.182;6.284;2022-08-07T03:53:27;7.13;;;6.43;;
52158;SDS011;38145;53.182;6.284;2022-08-07T03:55:54;10.60;;;6.78;;
52158;SDS011;38145;53.182;6.284;2022-08-07T03:58:23;8.85;;;6.20;;
52158;SDS011;38145;53.182;6.284;2022-08-07T04:00:51;7.43;;;6.00;;
52158;SDS011;38145;53.182;6.284;2022-08-07T04:03:18;5.53;;;4.60;;
52158;SDS011;38145;53.182;6.284;2022-08-07T04:05:45;3.70;;;3.40;;
52158;SDS011;38145;53.182;6.284;2022-08-07T04:08:12;5.25;;;4.35;;
52158;SDS011;38145;53.182;6.284;2022-08-07T04:10:39;6.55;;;5.50;;
52158;SDS011;38145;53.182;6.284;2022-08-07T04:13:07;6.75;;;6.05;;
52158;SDS011;38145;53.182;6.284;2022-08-07T04:15:36;7.45;;;6.65;;
52158;SDS011;38145;53.182;6.284;2022-08-07T04:18:03;8.07;;;6.63;;
52158;SDS011;38145;53.182;6.284;2022-08-07T04:20:29;9.40;;;6.10;;
52158;SDS011;38145;53.182;6.284;2022-08-07T04:22:58;9.15;;;6.68;;
52158;SDS011;38145;53.182;6.284;2022-08-07T04:25:24;11.85;;;8.55;;
52158;SDS011;38145;53.182;6.284;2022-08-07T04:27:52;9.32;;;8.32;;
52158;SDS011;38145;53.182;6.284;2022-08-07T04:30:19;9.15;;;8.05;;
52158;SDS011;38145;53.182;6.284;2022-08-07T04:32:45;10.75;;;8.35;;
52158;SDS011;38145;53.182;6.284;2022-08-07T04:35:12;10.80;;;9.20;;
52158;SDS011;38145;53.182;6.284;2022-08-07T04:37:38;13.15;;;8.88;;
52158;SDS011;38145;53.182;6.284;2022-08-07T04:40:05;9.10;;;7.78;;
52158;SDS011;38145;53.182;6.284;2022-08-07T04:42:32;8.32;;;6.45;;
52158;SDS011;38145;53.182;6.284;2022-08-07T04:45:00;8.10;;;6.70;;
52158;SDS011;38145;53.182;6.284;2022-08-07T04:47:33;8.77;;;6.90;;
52158;SDS011;38145;53.182;6.284;2022-08-07T04:50:17;7.70;;;6.10;;
52158;SDS011;38145;53.182;6.284;2022-08-07T04:52:49;7.75;;;6.50;;
52158;SDS011;38145;53.182;6.284;2022-08-07T04:57:57;7.55;;;6.22;;
52158;SDS011;38145;53.182;6.284;2022-08-07T05:03:19;8.57;;;6.40;;
52158;SDS011;38145;53.182;6.284;2022-08-07T05:08:33;9.90;;;7.25;;
52158;SDS011;38145;53.182;6.284;2022-08-07T05:11:13;8.25;;;6.05;;
52158;SDS011;38145;53.182;6.284;2022-08-07T05:13:53;9.32;;;7.57;;
52158;SDS011;38145;53.182;6.284;2022-08-07T05:16:26;9.68;;;7.25;;
52158;SDS011;38145;53.182;6.284;2022-08-07T05:18:58;11.25;;;8.15;;
52158;SDS011;38145;53.182;6.284;2022-08-07T05:21:28;12.88;;;8.15;;
52158;SDS011;38145;53.182;6.284;2022-08-07T05:23:57;12.93;;;9.20;;
52158;SDS011;38145;53.182;6.284;2022-08-07T05:26:28;10.48;;;7.95;;
52158;SDS011;38145;53.182;6.284;2022-08-07T05:28:58;11.23;;;8.38;;
52158;SDS011;38145;53.182;6.284;2022-08-07T05:31:26;10.25;;;8.27;;
52158;SDS011;38145;53.182;6.284;2022-08-07T05:33:58;11.32;;;7.72;;
52158;SDS011;38145;53.182;6.284;2022-08-07T05:36:26;10.48;;;8.82;;
52158;SDS011;38145;53.182;6.284;2022-08-07T05:38:54;13.25;;;9.23;;
52158;SDS011;38145;53.182;6.284;2022-08-07T05:41:22;9.98;;;8.32;;
52158;SDS011;38145;53.182;6.284;2022-08-07T05:43:49;12.13;;;9.10;;
52158;SDS011;38145;53.182;6.284;2022-08-07T05:46:18;12.60;;;9.00;;
52158;SDS011;38145;53.182;6.284;2022-08-07T05:48:47;13.43;;;9.52;;
52158;SDS011;38145;53.182;6.284;2022-08-07T05:51:14;11.38;;;8.32;;
52158;SDS011;38145;53.182;6.284;2022-08-07T05:53:42;12.20;;;9.48;;
52158;SDS011;38145;53.182;6.284;2022-08-07T05:56:09;9.73;;;8.50;;
52158;SDS011;38145;53.182;6.284;2022-08-07T05:58:38;12.45;;;8.85;;
52158;SDS011;38145;53.182;6.284;2022-08-07T06:01:08;11.27;;;9.10;;
52158;SDS011;38145;53.182;6.284;2022-08-07T06:03:36;11.20;;;8.70;;
52158;SDS011;38145;53.182;6.284;2022-08-07T06:06:06;12.98;;;8.23;;
52158;SDS011;38145;53.182;6.284;2022-08-07T06:08:33;10.87;;;9.70;;
52158;SDS011;38145;53.182;6.284;2022-08-07T06:10:59;11.93;;;9.18;;
52158;SDS011;38145;53.182;6.284;2022-08-07T06:13:25;9.73;;;8.45;;
52158;SDS011;38145;53.182;6.284;2022-08-07T06:15:52;9.55;;;8.10;;
52158;SDS011;38145;53.182;6.284;2022-08-07T06:20:47;10.67;;;8.40;;
52158;SDS011;38145;53.182;6.284;2022-08-07T06:23:14;10.27;;;8.57;;
52158;SDS011;38145;53.182;6.284;2022-08-07T06:25:41;11.00;;;8.30;;
52158;SDS011;38145;53.182;6.284;2022-08-07T06:28:08;11.23;;;8.40;;
52158;SDS011;38145;53.182;6.284;2022-08-07T06:30:35;11.45;;;9.02;;
52158;SDS011;38145;53.182;6.284;2022-08-07T06:33:05;13.35;;;7.90;;
52158;SDS011;38145;53.182;6.284;2022-08-07T06:35:31;12.27;;;8.60;;
52158;SDS011;38145;53.182;6.284;2022-08-07T06:38:00;11.95;;;8.13;;
52158;SDS011;38145;53.182;6.284;2022-08-07T06:40:28;13.40;;;7.97;;
52158;SDS011;38145;53.182;6.284;2022-08-07T06:42:59;15.55;;;7.85;;
52158;SDS011;38145;53.182;6.284;2022-08-07T06:45:30;8.30;;;7.30;;
52158;SDS011;38145;53.182;6.284;2022-08-07T06:47:58;13.88;;;7.47;;
52158;SDS011;38145;53.182;6.284;2022-08-07T06:50:27;8.70;;;6.70;;
52158;SDS011;38145;53.182;6.284;2022-08-07T06:52:55;9.32;;;7.50;;
52158;SDS011;38145;53.182;6.284;2022-08-07T06:55:25;10.13;;;7.28;;
52158;SDS011;38145;53.182;6.284;2022-08-07T06:57:54;9.32;;;6.70;;
52158;SDS011;38145;53.182;6.284;2022-08-07T07:00:24;9.13;;;5.57;;
52158;SDS011;38145;53.182;6.284;2022-08-07T07:02:52;10.77;;;7.00;;
52158;SDS011;38145;53.182;6.284;2022-08-07T07:05:21;7.63;;;6.35;;
52158;SDS011;38145;53.182;6.284;2022-08-07T07:07:47;7.75;;;5.68;;
52158;SDS011;38145;53.182;6.284;2022-08-07T07:10:14;7.03;;;6.13;;
52158;SDS011;38145;53.182;6.284;2022-08-07T07:12:45;7.07;;;6.35;;
52158;SDS011;38145;53.182;6.284;2022-08-07T07:15:18;7.00;;;5.43;;
52158;SDS011;38145;53.182;6.284;2022-08-07T07:17:57;6.65;;;5.25;;
52158;SDS011;38145;53.182;6.284;2022-08-07T07:20:37;7.20;;;5.25;;
52158;SDS011;38145;53.182;6.284;2022-08-07T07:23:07;6.32;;;4.53;;
52158;SDS011;38145;53.182;6.284;2022-08-07T07:25:36;4.75;;;4.25;;
52158;SDS011;38145;53.182;6.284;2022-08-07T07:28:14;4.75;;;4.05;;
52158;SDS011;38145;53.182;6.284;2022-08-07T07:30:47;6.85;;;4.15;;
52158;SDS011;38145;53.182;6.284;2022-08-07T07:33:20;4.65;;;4.22;;
52158;SDS011;38145;53.182;6.284;2022-08-07T07:38:17;4.85;;;4.32;;
52158;SDS011;38145;53.182;6.284;2022-08-07T07:40:45;8.70;;;4.10;;
52158;SDS011;38145;53.182;6.284;2022-08-07T07:43:15;4.38;;;3.97;;
52158;SDS011;38145;53.182;6.284;2022-08-07T07:48:11;5.90;;;4.20;;
52158;SDS011;38145;53.182;6.284;2022-08-07T07:50:40;5.70;;;4.55;;
52158;SDS011;38145;53.182;6.284;2022-08-07T07:53:07;5.00;;;4.03;;
52158;SDS011;38145;53.182;6.284;2022-08-07T07:55:35;6.65;;;4.20;;
52158;SDS011;38145;53.182;6.284;2022-08-07T07:58:02;5.45;;;4.10;;
52158;SDS011;38145;53.182;6.284;2022-08-07T08:00:30;5.25;;;3.47;;
52158;SDS011;38145;53.182;6.284;2022-08-07T08:03:00;4.78;;;3.85;;
52158;SDS011;38145;53.182;6.284;2022-08-07T08:05:30;5.88;;;4.20;;
52158;SDS011;38145;53.182;6.284;2022-08-07T08:08:00;4.75;;;4.20;;
52158;SDS011;38145;53.182;6.284;2022-08-07T08:10:27;7.03;;;4.70;;
52158;SDS011;38145;53.182;6.284;2022-08-07T08:12:54;4.30;;;3.90;;
52158;SDS011;38145;53.182;6.284;2022-08-07T08:15:21;4.95;;;3.97;;
52158;SDS011;38145;53.182;6.284;2022-08-07T08:17:48;4.75;;;3.60;;
52158;SDS011;38145;53.182;6.284;2022-08-07T08:20:15;7.32;;;4.28;;
52158;SDS011;38145;53.182;6.284;2022-08-07T08:22:42;6.53;;;3.58;;
52158;SDS011;38145;53.182;6.284;2022-08-07T08:25:30;3.90;;;3.60;;
52158;SDS011;38145;53.182;6.284;2022-08-07T08:28:21;4.45;;;3.60;;
52158;SDS011;38145;53.182;6.284;2022-08-07T08:30:52;7.40;;;4.25;;
52158;SDS011;38145;53.182;6.284;2022-08-07T08:33:23;5.43;;;4.25;;
52158;SDS011;38145;53.182;6.284;2022-08-07T08:35:53;4.07;;;3.67;;
52158;SDS011;38145;53.182;6.284;2022-08-07T08:38:22;5.45;;;3.65;;
52158;SDS011;38145;53.182;6.284;2022-08-07T08:40:57;5.57;;;3.72;;
52158;SDS011;38145;53.182;6.284;2022-08-07T08:46:20;3.38;;;2.92;;
52158;SDS011;38145;53.182;6.284;2022-08-07T08:49:12;3.55;;;3.20;;
52158;SDS011;38145;53.182;6.284;2022-08-07T08:51:51;4.90;;;3.42;;
52158;SDS011;38145;53.182;6.284;2022-08-07T08:54:25;6.38;;;3.35;;
52158;SDS011;38145;53.182;6.284;2022-08-07T08:56:58;5.88;;;3.33;;
52158;SDS011;38145;53.182;6.284;2022-08-07T09:02:11;6.13;;;3.45;;
52158;SDS011;38145;53.182;6.284;2022-08-07T09:07:44;4.28;;;2.75;;
52158;SDS011;38145;53.182;6.284;2022-08-07T09:10:22;4.45;;;2.90;;
52158;SDS011;38145;53.182;6.284;2022-08-07T09:21:28;2.95;;;2.45;;
52158;SDS011;38145;53.182;6.284;2022-08-07T09:26:39;3.97;;;3.42;;
52158;SDS011;38145;53.182;6.284;2022-08-07T09:29:23;7.65;;;4.25;;
52158;SDS011;38145;53.182;6.284;2022-08-07T09:48:10;2.80;;;2.40;;
52158;SDS011;38145;53.182;6.284;2022-08-07T09:51:14;3.42;;;2.63;;
52158;SDS011;38145;53.182;6.284;2022-08-07T09:53:56;4.25;;;2.60;;
52158;SDS011;38145;53.182;6.284;2022-08-07T09:56:28;3.40;;;2.50;;
52158;SDS011;38145;53.182;6.284;2022-08-07T10:07:12;2.67;;;2.35;;
52158;SDS011;38145;53.182;6.284;2022-08-07T10:10:06;3.55;;;2.50;;
52158;SDS011;38145;53.182;6.284;2022-08-07T10:13:02;5.25;;;2.70;;
52158;SDS011;38145;53.182;6.284;2022-08-07T10:18:19;5.63;;;3.40;;
52158;SDS011;38145;53.182;6.284;2022-08-07T10:23:38;4.78;;;3.05;;
52158;SDS011;38145;53.182;6.284;2022-08-07T10:26:23;4.50;;;3.00;;
52158;SDS011;38145;53.182;6.284;2022-08-07T10:34:29;2.97;;;2.42;;
52158;SDS011;38145;53.182;6.284;2022-08-07T10:39:55;3.35;;;2.70;;
52158;SDS011;38145;53.182;6.284;2022-08-07T10:42:37;2.72;;;2.53;;
52158;SDS011;38145;53.182;6.284;2022-08-07T10:47:45;3.45;;;2.80;;
52158;SDS011;38145;53.182;6.284;2022-08-07T10:50:30;4.40;;;3.00;;
52158;SDS011;38145;53.182;6.284;2022-08-07T10:53:13;3.42;;;2.58;;
52158;SDS011;38145;53.182;6.284;2022-08-07T10:55:51;3.17;;;2.33;;
52158;SDS011;38145;53.182;6.284;2022-08-07T11:06:22;3.00;;;2.58;;
52158;SDS011;38145;53.182;6.284;2022-08-07T11:08:59;4.03;;;2.65;;
52158;SDS011;38145;53.182;6.284;2022-08-07T11:11:32;3.83;;;2.63;;
52158;SDS011;38145;53.182;6.284;2022-08-07T11:14:06;6.13;;;2.50;;
52158;SDS011;38145;53.182;6.284;2022-08-07T11:16:44;4.40;;;2.67;;
52158;SDS011;38145;53.182;6.284;2022-08-07T11:22:03;2.63;;;2.10;;
52158;SDS011;38145;53.182;6.284;2022-08-07T11:24:52;3.38;;;2.20;;
52158;SDS011;38145;53.182;6.284;2022-08-07T11:30:12;2.17;;;1.95;;
52158;SDS011;38145;53.182;6.284;2022-08-07T11:32:45;2.97;;;1.83;;
52158;SDS011;38145;53.182;6.284;2022-08-07T11:35:20;2.93;;;1.87;;
52158;SDS011;38145;53.182;6.284;2022-08-07T11:37:55;2.75;;;1.55;;
52158;SDS011;38145;53.182;6.284;2022-08-07T11:40:40;3.92;;;1.75;;
52158;SDS011;38145;53.182;6.284;2022-08-07T11:43:20;3.67;;;1.77;;
52158;SDS011;38145;53.182;6.284;2022-08-07T11:48:36;1.97;;;1.67;;
52158;SDS011;38145;53.182;6.284;2022-08-07T11:51:30;5.22;;;2.67;;
52158;SDS011;38145;53.182;6.284;2022-08-07T11:54:15;3.47;;;2.25;;
52158;SDS011;38145;53.182;6.284;2022-08-07T12:02:12;3.75;;;2.97;;
52158;SDS011;38145;53.182;6.284;2022-08-07T12:04:59;4.03;;;2.95;;
52158;SDS011;38145;53.182;6.284;2022-08-07T12:10:13;6.68;;;3.50;;
52158;SDS011;38145;53.182;6.284;2022-08-07T12:12:51;5.78;;;3.50;;
52158;SDS011;38145;53.182;6.284;2022-08-07T12:17:52;4.13;;;3.00;;
52158;SDS011;38145;53.182;6.284;2022-08-07T12:23:08;3.72;;;2.85;;
52158;SDS011;38145;53.182;6.284;2022-08-07T12:25:45;5.38;;;3.20;;
52158;SDS011;38145;53.182;6.284;2022-08-07T12:28:33;4.80;;;3.00;;
52158;SDS011;38145;53.182;6.284;2022-08-07T12:31:12;7.35;;;3.08;;
52158;SDS011;38145;53.182;6.284;2022-08-07T12:33:57;5.40;;;2.80;;
52158;SDS011;38145;53.182;6.284;2022-08-07T12:36:24;4.22;;;3.03;;
52158;SDS011;38145;53.182;6.284;2022-08-07T12:38:52;6.93;;;3.25;;
52158;SDS011;38145;53.182;6.284;2022-08-07T12:41:22;4.18;;;2.80;;
52158;SDS011;38145;53.182;6.284;2022-08-07T12:43:51;4.47;;;2.65;;
52158;SDS011;38145;53.182;6.284;2022-08-07T12:46:25;6.70;;;2.67;;
52158;SDS011;38145;53.182;6.284;2022-08-07T12:51:36;4.97;;;3.03;;
52158;SDS011;38145;53.182;6.284;2022-08-07T12:56:52;3.67;;;2.40;;
52158;SDS011;38145;53.182;6.284;2022-08-07T12:59:22;3.42;;;2.92;;
52158;SDS011;38145;53.182;6.284;2022-08-07T13:01:57;6.03;;;2.90;;
52158;SDS011;38145;53.182;6.284;2022-08-07T13:04:55;4.88;;;2.70;;
52158;SDS011;38145;53.182;6.284;2022-08-07T13:12:55;3.53;;;1.85;;
52158;SDS011;38145;53.182;6.284;2022-08-07T13:15:39;4.30;;;1.95;;
52158;SDS011;38145;53.182;6.284;2022-08-07T13:21:22;3.75;;;1.90;;
52158;SDS011;38145;53.182;6.284;2022-08-07T13:24:02;3.75;;;1.90;;
52158;SDS011;38145;53.182;6.284;2022-08-07T13:26:39;3.83;;;1.95;;
52158;SDS011;38145;53.182;6.284;2022-08-07T13:29:10;4.22;;;1.98;;
52158;SDS011;38145;53.182;6.284;2022-08-07T13:31:46;6.47;;;2.10;;
52158;SDS011;38145;53.182;6.284;2022-08-07T13:34:25;4.68;;;1.90;;
52158;SDS011;38145;53.182;6.284;2022-08-07T13:37:03;2.33;;;1.58;;
52158;SDS011;38145;53.182;6.284;2022-08-07T13:42:17;2.80;;;1.73;;
52158;SDS011;38145;53.182;6.284;2022-08-07T13:44:47;2.95;;;1.85;;
52158;SDS011;38145;53.182;6.284;2022-08-07T13:47:15;2.55;;;1.42;;
52158;SDS011;38145;53.182;6.284;2022-08-07T13:49:45;2.10;;;1.73;;
52158;SDS011;38145;53.182;6.284;2022-08-07T13:52:13;4.63;;;1.80;;
52158;SDS011;38145;53.182;6.284;2022-08-07T13:54:40;1.30;;;1.10;;
52158;SDS011;38145;53.182;6.284;2022-08-07T13:57:09;3.88;;;1.58;;
52158;SDS011;38145;53.182;6.284;2022-08-07T13:59:42;1.67;;;1.05;;
52158;SDS011;38145;53.182;6.284;2022-08-07T14:02:20;3.30;;;1.65;;
52158;SDS011;38145;53.182;6.284;2022-08-07T14:04:50;2.85;;;1.65;;
52158;SDS011;38145;53.182;6.284;2022-08-07T14:09:54;2.42;;;2.22;;
52158;SDS011;38145;53.182;6.284;2022-08-07T14:12:25;6.45;;;1.95;;
52158;SDS011;38145;53.182;6.284;2022-08-07T14:14:59;4.10;;;2.35;;
52158;SDS011;38145;53.182;6.284;2022-08-07T14:17:28;3.63;;;2.55;;
52158;SDS011;38145;53.182;6.284;2022-08-07T14:20:03;4.40;;;2.65;;
52158;SDS011;38145;53.182;6.284;2022-08-07T14:22:35;5.82;;;2.80;;
52158;SDS011;38145;53.182;6.284;2022-08-07T14:25:09;5.30;;;2.80;;
52158;SDS011;38145;53.182;6.284;2022-08-07T14:27:42;5.88;;;2.60;;
52158;SDS011;38145;53.182;6.284;2022-08-07T14:30:12;3.38;;;2.50;;
52158;SDS011;38145;53.182;6.284;2022-08-07T14:32:41;3.92;;;2.60;;
52158;SDS011;38145;53.182;6.284;2022-08-07T14:35:15;3.10;;;2.40;;
52158;SDS011;38145;53.182;6.284;2022-08-07T14:37:44;2.67;;;2.17;;
52158;SDS011;38145;53.182;6.284;2022-08-07T14:40:15;5.43;;;2.60;;
52158;SDS011;38145;53.182;6.284;2022-08-07T14:42:44;3.58;;;2.50;;
52158;SDS011;38145;53.182;6.284;2022-08-07T14:45:11;5.90;;;2.35;;
52158;SDS011;38145;53.182;6.284;2022-08-07T14:47:39;4.53;;;2.53;;
52158;SDS011;38145;53.182;6.284;2022-08-07T14:50:07;5.20;;;2.95;;
52158;SDS011;38145;53.182;6.284;2022-08-07T14:57:30;4.82;;;2.53;;
52158;SDS011;38145;53.182;6.284;2022-08-07T14:59:59;4.72;;;3.08;;
52158;SDS011;38145;53.182;6.284;2022-08-07T15:02:26;4.10;;;2.90;;
52158;SDS011;38145;53.182;6.284;2022-08-07T15:04:54;3.70;;;3.00;;
52158;SDS011;38145;53.182;6.284;2022-08-07T15:07:22;6.07;;;3.22;;
52158;SDS011;38145;53.182;6.284;2022-08-07T15:09:50;3.10;;;2.50;;
52158;SDS011;38145;53.182;6.284;2022-08-07T15:12:23;5.50;;;2.47;;
52158;SDS011;38145;53.182;6.284;2022-08-07T15:14:58;5.15;;;2.80;;
52158;SDS011;38145;53.182;6.284;2022-08-07T15:17:31;3.67;;;2.60;;
52158;SDS011;38145;53.182;6.284;2022-08-07T15:20:03;5.93;;;2.50;;
52158;SDS011;38145;53.182;6.284;2022-08-07T15:22:49;7.10;;;3.17;;
52158;SDS011;38145;53.182;6.284;2022-08-07T15:25:20;4.30;;;2.80;;
52158;SDS011;38145;53.182;6.284;2022-08-07T15:27:53;3.65;;;2.63;;
52158;SDS011;38145;53.182;6.284;2022-08-07T15:30:23;6.47;;;2.45;;
52158;SDS011;38145;53.182;6.284;2022-08-07T15:32:51;3.50;;;3.13;;
52158;SDS011;38145;53.182;6.284;2022-08-07T15:35:18;3.63;;;2.70;;
52158;SDS011;38145;53.182;6.284;2022-08-07T15:37:48;4.20;;;2.60;;
52158;SDS011;38145;53.182;6.284;2022-08-07T15:40:17;4.30;;;2.72;;
52158;SDS011;38145;53.182;6.284;2022-08-07T15:45:14;4.80;;;3.10;;
52158;SDS011;38145;53.182;6.284;2022-08-07T15:47:47;5.20;;;2.97;;
52158;SDS011;38145;53.182;6.284;2022-08-07T15:50:26;5.38;;;3.40;;
52158;SDS011;38145;53.182;6.284;2022-08-07T15:53:08;5.90;;;3.20;;
52158;SDS011;38145;53.182;6.284;2022-08-07T15:55:42;4.25;;;2.88;;
52158;SDS011;38145;53.182;6.284;2022-08-07T15:58:12;11.68;;;2.88;;
52158;SDS011;38145;53.182;6.284;2022-08-07T16:00:41;5.53;;;2.53;;
52158;SDS011;38145;53.182;6.284;2022-08-07T16:03:16;3.85;;;2.67;;
52158;SDS011;38145;53.182;6.284;2022-08-07T16:05:46;5.75;;;3.00;;
52158;SDS011;38145;53.182;6.284;2022-08-07T16:08:17;10.57;;;4.28;;
52158;SDS011;38145;53.182;6.284;2022-08-07T16:10:51;6.38;;;3.88;;
52158;SDS011;38145;53.182;6.284;2022-08-07T16:18:37;5.43;;;3.83;;
52158;SDS011;38145;53.182;6.284;2022-08-07T16:23:55;6.45;;;4.18;;
52158;SDS011;38145;53.182;6.284;2022-08-07T16:26:31;6.00;;;3.67;;
52158;SDS011;38145;53.182;6.284;2022-08-07T16:29:11;5.80;;;3.47;;
52158;SDS011;38145;53.182;6.284;2022-08-07T16:32:12;5.25;;;3.33;;
52158;SDS011;38145;53.182;6.284;2022-08-07T16:34:51;11.02;;;3.95;;
52158;SDS011;38145;53.182;6.284;2022-08-07T16:37:25;5.53;;;3.17;;
52158;SDS011;38145;53.182;6.284;2022-08-07T16:40:25;6.45;;;3.53;;
52158;SDS011;38145;53.182;6.284;2022-08-07T16:43:11;6.20;;;3.75;;
52158;SDS011;38145;53.182;6.284;2022-08-07T16:59:39;9.60;;;3.90;;
52158;SDS011;38145;53.182;6.284;2022-08-07T17:05:11;4.20;;;3.28;;
52158;SDS011;38145;53.182;6.284;2022-08-07T17:07:51;8.45;;;3.78;;
52158;SDS011;38145;53.182;6.284;2022-08-07T17:16:02;6.97;;;3.35;;
52158;SDS011;38145;53.182;6.284;2022-08-07T17:18:48;5.07;;;3.08;;
52158;SDS011;38145;53.182;6.284;2022-08-07T17:21:25;4.43;;;2.95;;
52158;SDS011;38145;53.182;6.284;2022-08-07T17:26:32;6.55;;;3.60;;
52158;SDS011;38145;53.182;6.284;2022-08-07T17:29:11;6.40;;;2.90;;
52158;SDS011;38145;53.182;6.284;2022-08-07T17:31:48;7.22;;;3.17;;
52158;SDS011;38145;53.182;6.284;2022-08-07T17:34:33;4.40;;;2.97;;
52158;SDS011;38145;53.182;6.284;2022-08-07T17:37:03;6.75;;;3.00;;
52158;SDS011;38145;53.182;6.284;2022-08-07T17:39:58;5.13;;;2.70;;
52158;SDS011;38145;53.182;6.284;2022-08-07T17:45:11;8.13;;;3.17;;
52158;SDS011;38145;53.182;6.284;2022-08-07T17:47:46;5.57;;;2.60;;
52158;SDS011;38145;53.182;6.284;2022-08-07T17:50:41;6.25;;;2.60;;
52158;SDS011;38145;53.182;6.284;2022-08-07T17:53:12;6.32;;;2.65;;
52158;SDS011;38145;53.182;6.284;2022-08-07T17:55:56;4.25;;;2.85;;
52158;SDS011;38145;53.182;6.284;2022-08-07T17:58:32;6.32;;;2.38;;
52158;SDS011;38145;53.182;6.284;2022-08-07T18:01:10;4.53;;;2.38;;
52158;SDS011;38145;53.182;6.284;2022-08-07T18:03:46;6.45;;;2.33;;
52158;SDS011;38145;53.182;6.284;2022-08-07T18:06:34;6.72;;;2.13;;